Aviation Digital Data Service (ADDS)

Output produced by METARs form (0414 UTC 31 August 2014)
found at http://aviationweather.gov/adds/metars/
 
KHUL 302332Z 3100/3124 20009KT P6SM BKN100 
     FM310900 20009KT 2SM BR BKN009 
     FM311200 20008KT P6SM OVC015 
     FM312000 22007KT 5SM -SHRA BR OVC020